createdAt,value
2022-09-15T00:02:49.015Z,878
2022-09-15T00:08:07.489Z,887
2022-09-15T00:13:26.277Z,870
2022-09-15T00:18:44.831Z,869
2022-09-15T00:24:03.383Z,866
2022-09-15T00:29:21.306Z,862
2022-09-15T00:34:40.192Z,843
2022-09-15T00:39:58.306Z,843
2022-09-15T00:45:16.513Z,835
2022-09-15T00:50:35.287Z,851
2022-09-15T00:55:53.859Z,841
2022-09-15T01:01:12.437Z,837
2022-09-15T01:06:31.243Z,835
2022-09-15T01:11:49.800Z,848
2022-09-15T01:17:08.040Z,851
2022-09-15T01:22:26.521Z,857
2022-09-15T01:27:44.423Z,827
2022-09-15T01:33:02.905Z,824
2022-09-15T01:38:21.411Z,831
2022-09-15T01:43:39.876Z,821
2022-09-15T01:48:58.351Z,817
2022-09-15T01:54:17.173Z,819
2022-09-15T01:59:35.363Z,814
2022-09-15T02:04:54.092Z,812
2022-09-15T02:10:12.333Z,885
2022-09-15T02:15:31.073Z,903
2022-09-15T02:20:49.831Z,838
2022-09-15T02:26:08.054Z,929
2022-09-15T02:31:26.546Z,947
2022-09-15T02:36:44.903Z,898
2022-09-15T02:42:03.126Z,834
2022-09-15T02:47:21.301Z,818
2022-09-15T02:52:40.076Z,808
2022-09-15T02:57:58.337Z,817
2022-09-15T03:03:16.546Z,823
2022-09-15T03:08:35.016Z,810
2022-09-15T03:13:53.007Z,810
2022-09-15T03:19:11.298Z,805
2022-09-15T03:24:29.503Z,815
2022-09-15T03:29:48.269Z,823
2022-09-15T03:35:06.316Z,807
2022-09-15T03:40:25.138Z,862
2022-09-15T03:45:43.766Z,831
2022-09-15T03:51:02.245Z,864
2022-09-15T03:56:20.988Z,843
2022-09-15T04:01:39.516Z,848
2022-09-15T04:06:57.961Z,812
2022-09-15T04:12:16.469Z,816
2022-09-15T04:17:34.675Z,814
2022-09-15T04:22:52.848Z,799
2022-09-15T04:28:11.329Z,794
2022-09-15T04:33:30.144Z,795
2022-09-15T04:38:48.448Z,784
2022-09-15T04:44:06.905Z,802
2022-09-15T04:49:25.420Z,804
2022-09-15T04:54:43.597Z,791
2022-09-15T05:00:02.079Z,786
2022-09-15T05:05:20.873Z,784
2022-09-15T05:10:38.773Z,673
2022-09-15T05:15:57.322Z,631
2022-09-15T05:21:15.788Z,575
2022-09-15T05:26:34.083Z,578
2022-09-15T05:31:52.618Z,569
2022-09-15T05:37:11.083Z,578
2022-09-15T05:42:29.904Z,559
2022-09-15T05:47:48.404Z,546
2022-09-15T05:53:06.993Z,537
2022-09-15T05:58:25.734Z,526
2022-09-15T06:03:44.214Z,507
2022-09-15T06:09:03.240Z,490
2022-09-15T06:14:22.171Z,497
2022-09-15T06:19:40.921Z,534
2022-09-15T06:24:59.443Z,536
2022-09-15T06:30:17.913Z,511
2022-09-15T06:35:36.088Z,477
2022-09-15T06:40:54.620Z,459
2022-09-15T06:46:12.870Z,454
2022-09-15T06:51:31.061Z,458
2022-09-15T06:56:49.016Z,472
2022-09-15T07:02:07.245Z,473
2022-09-15T07:07:26.218Z,485
2022-09-15T07:12:44.424Z,479
2022-09-15T07:18:02.885Z,463
2022-09-15T07:23:21.360Z,453
2022-09-15T07:28:39.873Z,446
2022-09-15T07:33:58.076Z,443
2022-09-15T07:39:16.537Z,438
2022-09-15T07:44:34.772Z,439
2022-09-15T07:49:52.955Z,435
2022-09-15T07:55:11.455Z,436
2022-09-15T08:00:29.691Z,436
2022-09-15T08:05:48.729Z,428
2022-09-15T08:11:07.214Z,423
2022-09-15T08:16:25.759Z,425
2022-09-15T08:21:44.258Z,421
2022-09-15T08:27:02.770Z,416
2022-09-15T08:32:21.549Z,417
2022-09-15T08:37:40.273Z,419
2022-09-15T08:42:59.028Z,432
2022-09-15T08:48:17.533Z,434
2022-09-15T08:53:35.997Z,436
2022-09-15T08:58:54.198Z,442
2022-09-15T09:04:15.430Z,454
2022-09-15T09:09:36.210Z,457
2022-09-15T09:14:54.158Z,438
2022-09-15T09:20:12.358Z,432
2022-09-15T09:25:30.813Z,424
2022-09-15T09:30:49.351Z,419
2022-09-15T09:36:08.097Z,414
2022-09-15T09:41:26.737Z,414
2022-09-15T09:46:44.953Z,410
2022-09-15T09:52:03.231Z,407
2022-09-15T09:57:21.742Z,409
2022-09-15T10:02:40.493Z,417
2022-09-15T10:07:58.992Z,418
2022-09-15T10:13:17.451Z,415
2022-09-15T10:18:35.970Z,417
2022-09-15T10:23:54.259Z,439
2022-09-15T10:29:12.857Z,458
2022-09-15T10:34:30.796Z,462
2022-09-15T10:39:49.635Z,473
2022-09-15T10:45:08.029Z,476
2022-09-15T10:50:26.242Z,476
2022-09-15T10:55:53.355Z,483
2022-09-15T11:01:12.405Z,488
2022-09-15T11:06:30.359Z,490
2022-09-15T11:11:48.563Z,484
2022-09-15T11:17:07.029Z,469
2022-09-15T11:22:25.228Z,461
2022-09-15T11:27:43.780Z,464
2022-09-15T11:33:02.509Z,463
2022-09-15T11:38:21.268Z,450
2022-09-15T11:43:40.062Z,426
2022-09-15T11:48:58.361Z,416
2022-09-15T11:54:17.148Z,402
2022-09-15T11:59:35.896Z,430
2022-09-15T12:04:54.090Z,452
2022-09-15T12:10:12.305Z,469
2022-09-15T12:15:30.801Z,516
2022-09-15T12:20:48.980Z,490
2022-09-15T12:26:07.446Z,435
2022-09-15T12:31:25.745Z,422
2022-09-15T12:36:44.234Z,416
2022-09-15T12:42:02.459Z,434
2022-09-15T12:47:20.965Z,473
2022-09-15T12:52:39.692Z,479
2022-09-15T12:57:58.205Z,454
2022-09-15T13:03:16.996Z,435
2022-09-15T13:08:35.394Z,420
2022-09-15T13:13:53.663Z,424
2022-09-15T13:19:11.653Z,534
2022-09-15T13:24:29.550Z,473
2022-09-15T13:29:47.750Z,460
2022-09-15T13:35:12.874Z,436
2022-09-15T13:40:38.807Z,444
2022-09-15T13:45:57.608Z,438
2022-09-15T13:51:15.789Z,443
2022-09-15T13:56:33.971Z,443
2022-09-15T14:01:52.955Z,438
2022-09-15T14:07:12.204Z,435
2022-09-15T14:12:30.775Z,437
2022-09-15T14:17:49.291Z,434
2022-09-15T14:23:07.792Z,449
2022-09-15T14:28:29.541Z,459
2022-09-15T14:33:49.803Z,461
2022-09-15T14:39:08.021Z,461
2022-09-15T14:51:14.634Z,515
2022-09-15T14:56:33.443Z,511
2022-09-15T15:01:51.396Z,488
2022-09-15T15:07:09.748Z,465
2022-09-15T15:12:28.281Z,460
2022-09-15T15:17:46.456Z,456
2022-09-15T15:23:04.649Z,462
2022-09-15T15:28:23.454Z,475
2022-09-15T15:33:41.886Z,475
2022-09-15T15:39:00.457Z,474
2022-09-15T15:44:18.713Z,493
2022-09-15T15:49:42.395Z,473
2022-09-15T15:55:32.614Z,466
2022-09-15T16:00:51.550Z,469
2022-09-15T16:06:10.625Z,478
2022-09-15T16:11:29.120Z,476
2022-09-15T16:16:47.621Z,474
2022-09-15T16:21:50.728Z,469
2022-09-15T16:27:09.383Z,462
2022-09-15T16:32:27.879Z,456
2022-09-15T16:37:46.332Z,452
2022-09-15T16:43:04.512Z,449
2022-09-15T16:48:23.327Z,452
2022-09-15T16:53:41.801Z,462
2022-09-15T16:59:00.880Z,477
2022-09-15T17:04:19.373Z,524
2022-09-15T17:09:38.090Z,543
2022-09-15T17:14:56.538Z,540
2022-09-15T17:20:15.342Z,536
2022-09-15T17:25:33.769Z,520
2022-09-15T17:30:52.602Z,520
2022-09-15T17:36:10.958Z,513
2022-09-15T17:41:29.111Z,517
2022-09-15T17:46:47.945Z,514
2022-09-15T17:52:06.541Z,508
2022-09-15T17:57:25.119Z,507
2022-09-15T18:02:43.377Z,499
2022-09-15T18:08:02.154Z,501
2022-09-15T18:13:20.577Z,504
2022-09-15T18:18:38.778Z,520
2022-09-15T18:23:57.489Z,550
2022-09-15T18:29:15.948Z,564
2022-09-15T18:34:34.514Z,536
2022-09-15T18:39:52.782Z,488
2022-09-15T18:45:11.173Z,460
2022-09-15T18:50:29.650Z,450
2022-09-15T18:55:48.453Z,434
2022-09-15T19:01:07.067Z,438
2022-09-15T19:06:26.188Z,469
2022-09-15T19:11:44.692Z,491
2022-09-15T19:17:03.485Z,501
2022-09-15T19:22:21.610Z,515
2022-09-15T19:27:40.121Z,532
2022-09-15T19:32:58.306Z,536
2022-09-15T19:38:16.478Z,504
2022-09-15T19:43:35.219Z,494
2022-09-15T19:48:53.745Z,496
2022-09-15T19:53:56.646Z,517
2022-09-15T19:59:15.411Z,561
2022-09-15T20:04:34.153Z,601
2022-09-15T20:09:52.910Z,626
2022-09-15T20:15:11.723Z,629
2022-09-15T20:20:29.615Z,631
2022-09-15T20:25:48.374Z,643
2022-09-15T20:31:07.193Z,673
2022-09-15T20:36:25.584Z,685
2022-09-15T20:41:44.056Z,686
2022-09-15T20:47:03.154Z,660
2022-09-15T20:52:21.623Z,652
2022-09-15T20:57:40.072Z,652
2022-09-15T21:02:58.409Z,673
2022-09-15T21:08:16.591Z,686
2022-09-15T21:13:35.359Z,691
2022-09-15T21:18:54.193Z,695
2022-09-15T21:24:12.325Z,702
2022-09-15T21:29:30.772Z,715
2022-09-15T21:34:49.512Z,729
2022-09-15T21:40:07.491Z,731
2022-09-15T21:45:25.744Z,740
2022-09-15T21:50:43.679Z,765
2022-09-15T21:56:01.910Z,769
2022-09-15T22:01:20.238Z,774
2022-09-15T22:06:38.837Z,795
2022-09-15T22:11:57.302Z,799
2022-09-15T22:17:15.534Z,806
2022-09-15T22:22:34.015Z,806
2022-09-15T22:27:52.209Z,811
2022-09-15T22:33:10.411Z,814
2022-09-15T22:38:29.206Z,819
2022-09-15T22:43:47.423Z,831
2022-09-15T22:49:05.865Z,826
2022-09-15T22:54:24.655Z,845
2022-09-15T22:59:42.826Z,852
2022-09-15T23:05:01.317Z,881
2022-09-15T23:10:19.242Z,890
2022-09-15T23:15:37.947Z,912
2022-09-15T23:20:56.414Z,931
2022-09-15T23:26:14.923Z,945
2022-09-15T23:31:33.758Z,955
2022-09-15T23:36:52.114Z,958
2022-09-15T23:42:11.494Z,967
2022-09-15T23:47:36.863Z,989
2022-09-15T23:52:55.660Z,1011
2022-09-15T23:58:13.859Z,1006
